createdAt,value
2022-09-07T00:01:46.974Z,96111.81
2022-09-07T00:04:14.501Z,96105.25
2022-09-07T00:06:42.092Z,96107.47
2022-09-07T00:09:09.593Z,96103.31
2022-09-07T00:11:38.434Z,96104.94
2022-09-07T00:14:07.571Z,96107.84
2022-09-07T00:16:35.592Z,96104.97
2022-09-07T00:19:04.952Z,96105.06
2022-09-07T00:21:32.772Z,96105.34
2022-09-07T00:24:00.277Z,96100.09
2022-09-07T00:26:29.781Z,96101.94
2022-09-07T00:28:59.899Z,96101.72
2022-09-07T00:31:29.072Z,96103.59
2022-09-07T00:33:59.198Z,96104.59
2022-09-07T00:36:27.052Z,96107.28
2022-09-07T00:38:54.934Z,96098.00
2022-09-07T00:41:23.675Z,96098.25
2022-09-07T00:43:54.251Z,96101.38
2022-09-07T00:46:24.985Z,96092.63
2022-09-07T00:48:56.247Z,96094.47
2022-09-07T00:51:30.425Z,96088.03
2022-09-07T00:54:02.715Z,96086.41
2022-09-07T00:56:34.428Z,96093.03
2022-09-07T00:59:02.771Z,96088.91
2022-09-07T01:01:33.410Z,96084.72
2022-09-07T01:04:02.279Z,96089.69
2022-09-07T01:06:33.279Z,96090.09
2022-09-07T01:09:04.627Z,96096.81
2022-09-07T01:11:34.930Z,96101.19
2022-09-07T01:14:04.632Z,96101.53
2022-09-07T01:16:57.236Z,96101.00
2022-09-07T01:19:50.176Z,96106.34
2022-09-07T01:22:39.457Z,96096.19
2022-09-07T01:25:11.341Z,96094.13
2022-09-07T01:28:00.077Z,96097.75
2022-09-07T01:30:28.831Z,96091.78
2022-09-07T01:33:23.014Z,96098.47
2022-09-07T01:36:00.729Z,96100.50
2022-09-07T01:38:36.983Z,96099.72
2022-09-07T01:41:09.600Z,96098.31
2022-09-07T01:43:44.421Z,96092.34
2022-09-07T01:46:17.391Z,96094.16
2022-09-07T01:48:48.151Z,96100.66
2022-09-07T01:51:19.801Z,96095.72
2022-09-07T01:53:53.759Z,96097.41
2022-09-07T01:56:25.677Z,96100.31
2022-09-07T01:58:57.715Z,96091.31
2022-09-07T02:01:29.586Z,96090.09
2022-09-07T02:04:01.888Z,96093.41
2022-09-07T02:06:38.394Z,96092.03
2022-09-07T02:09:10.857Z,96079.63
2022-09-07T02:11:42.181Z,96069.50
2022-09-07T02:14:17.097Z,96079.81
2022-09-07T02:16:54.424Z,96087.69
2022-09-07T02:19:23.706Z,96085.94
2022-09-07T02:22:00.298Z,96090.09
2022-09-07T02:24:32.668Z,96079.47
2022-09-07T02:27:03.772Z,96081.13
2022-09-07T02:29:32.650Z,96091.69
2022-09-07T02:32:00.179Z,96086.50
2022-09-07T02:34:27.939Z,96083.34
2022-09-07T02:36:56.312Z,96095.41
2022-09-07T02:39:23.809Z,96101.66
2022-09-07T02:41:51.360Z,96096.19
2022-09-07T02:44:22.298Z,96085.88
2022-09-07T02:47:20.209Z,96089.94
2022-09-07T02:50:14.752Z,96085.94
2022-09-07T02:52:52.028Z,96093.13
2022-09-07T02:55:28.996Z,96096.09
2022-09-07T02:58:06.073Z,96097.38
2022-09-07T03:00:42.985Z,96099.63
2022-09-07T03:03:20.993Z,96098.00
2022-09-07T03:05:51.762Z,96096.31
2022-09-07T03:08:22.651Z,96091.41
2022-09-07T03:10:50.984Z,96095.56
2022-09-07T03:13:23.253Z,96096.00
2022-09-07T03:15:55.497Z,96098.72
2022-09-07T03:18:24.982Z,96093.97
2022-09-07T03:20:52.642Z,96089.00
2022-09-07T03:23:20.264Z,96105.94
2022-09-07T03:25:48.977Z,96104.53
2022-09-07T03:28:17.039Z,96107.59
2022-09-07T03:30:47.085Z,96110.06
2022-09-07T03:33:16.031Z,96106.34
2022-09-07T03:35:45.909Z,96106.72
2022-09-07T03:38:13.759Z,96114.44
2022-09-07T03:40:41.538Z,96107.75
2022-09-07T03:43:09.055Z,96103.28
2022-09-07T03:45:36.568Z,96110.56
2022-09-07T03:48:04.145Z,96106.91
2022-09-07T03:50:31.663Z,96095.84
2022-09-07T03:53:00.523Z,96102.00
2022-09-07T03:55:28.032Z,96103.25
2022-09-07T03:57:55.544Z,96096.94
2022-09-07T04:00:23.045Z,96091.91
2022-09-07T04:02:50.609Z,96091.44
2022-09-07T04:05:18.344Z,96083.13
2022-09-07T04:07:45.846Z,96086.25
2022-09-07T04:10:14.691Z,96084.66
2022-09-07T04:12:42.193Z,96083.25
2022-09-07T04:15:10.402Z,96085.69
2022-09-07T04:17:37.882Z,96087.19
2022-09-07T04:20:06.155Z,96092.31
2022-09-07T04:22:33.643Z,96084.19
2022-09-07T04:25:01.163Z,96088.53
2022-09-07T04:27:30.043Z,96086.59
2022-09-07T04:29:57.556Z,96084.97
2022-09-07T04:32:25.045Z,96075.94
2022-09-07T04:34:54.341Z,96074.00
2022-09-07T04:37:21.900Z,96070.59
2022-09-07T04:39:49.460Z,96080.72
2022-09-07T04:42:17.013Z,96076.63
2022-09-07T04:44:45.837Z,96086.38
2022-09-07T04:47:13.437Z,96086.53
2022-09-07T04:49:40.937Z,96090.53
2022-09-07T04:52:08.569Z,96093.75
2022-09-07T04:54:36.182Z,96086.69
2022-09-07T04:57:03.675Z,96090.81
2022-09-07T04:59:31.369Z,96091.84
2022-09-07T05:02:00.396Z,96093.47
2022-09-07T05:04:28.010Z,96097.44
2022-09-07T05:06:55.909Z,96103.22
2022-09-07T05:09:23.404Z,96113.38
2022-09-07T05:11:50.896Z,96102.25
2022-09-07T05:14:18.411Z,96109.91
2022-09-07T05:16:45.985Z,96109.78
2022-09-07T05:19:15.568Z,96102.31
2022-09-07T05:21:43.110Z,96111.00
2022-09-07T05:24:10.962Z,96104.97
2022-09-07T05:26:40.184Z,96118.97
2022-09-07T05:31:55.669Z,96106.63
2022-09-07T05:36:55.423Z,96120.72
2022-09-07T05:39:22.953Z,96112.19
2022-09-07T05:41:50.640Z,96126.53
2022-09-07T05:47:05.947Z,96122.69
2022-09-07T05:49:34.789Z,96128.56
2022-09-07T05:52:02.297Z,96127.59
2022-09-07T05:54:29.824Z,96137.97
2022-09-07T05:56:57.301Z,96133.47
2022-09-07T05:59:24.788Z,96142.34
2022-09-07T06:01:52.399Z,96133.94
2022-09-07T06:04:20.241Z,96137.31
2022-09-07T06:07:17.762Z,96134.31
2022-09-07T06:12:24.055Z,96141.09
2022-09-07T06:14:51.545Z,96145.03
2022-09-07T06:17:19.646Z,96143.47
2022-09-07T06:19:47.134Z,96143.41
2022-09-07T06:22:15.953Z,96154.25
2022-09-07T06:24:43.457Z,96148.84
2022-09-07T06:27:11.309Z,96147.09
2022-09-07T06:29:38.810Z,96148.13
2022-09-07T06:34:54.137Z,96161.34
2022-09-07T06:37:23.011Z,96161.91
2022-09-07T06:39:50.549Z,96157.78
2022-09-07T06:42:18.093Z,96160.00
2022-09-07T06:44:45.609Z,96153.66
2022-09-07T06:47:13.115Z,96154.06
2022-09-07T06:49:40.622Z,96152.22
2022-09-07T06:52:08.140Z,96145.19
2022-09-07T06:57:24.586Z,96159.16
2022-09-07T06:59:52.077Z,96166.75
2022-09-07T07:02:19.552Z,96157.22
2022-09-07T07:04:47.508Z,96160.66
2022-09-07T07:07:15.421Z,96153.66
2022-09-07T07:09:44.294Z,96157.50
2022-09-07T07:12:12.159Z,96142.97
2022-09-07T07:14:44.060Z,96134.69
2022-09-07T07:17:12.591Z,96145.16
2022-09-07T07:19:40.110Z,96151.69
2022-09-07T07:22:36.080Z,96152.34
2022-09-07T07:24:56.437Z,96154.66
2022-09-07T07:27:24.024Z,96152.41
2022-09-07T07:29:52.399Z,96149.09
2022-09-07T07:32:19.928Z,96153.94
2022-09-07T07:34:47.382Z,96151.44
2022-09-07T07:37:15.962Z,96161.63
2022-09-07T07:42:33.936Z,96165.66
2022-09-07T07:47:50.646Z,96167.06
2022-09-07T07:50:34.310Z,96164.47
2022-09-07T07:55:49.570Z,96159.13
2022-09-07T07:58:19.072Z,96157.66
2022-09-07T08:00:55.588Z,96163.25
2022-09-07T08:03:24.711Z,96160.94
2022-09-07T08:05:52.982Z,96153.41
2022-09-07T08:08:20.902Z,96155.94
2022-09-07T08:10:48.435Z,96157.13
2022-09-07T08:13:16.313Z,96157.16
2022-09-07T08:15:46.095Z,96153.31
2022-09-07T08:18:14.367Z,96159.84
2022-09-07T08:20:42.034Z,96148.56
2022-09-07T08:23:10.613Z,96151.91
2022-09-07T08:25:38.450Z,96154.94
2022-09-07T08:28:06.679Z,96148.00
2022-09-07T08:30:34.166Z,96155.50
2022-09-07T08:33:02.950Z,96158.53
2022-09-07T08:35:30.389Z,96157.41
2022-09-07T08:37:57.854Z,96155.53
2022-09-07T08:40:26.889Z,96151.94
2022-09-07T08:43:04.697Z,96155.59
2022-09-07T08:45:37.840Z,96152.31
2022-09-07T08:48:06.637Z,96156.63
2022-09-07T08:50:39.828Z,96152.41
2022-09-07T08:53:13.153Z,96153.09
2022-09-07T08:55:44.437Z,96150.91
2022-09-07T08:58:32.655Z,96156.75
2022-09-07T09:04:16.568Z,96151.97
2022-09-07T09:06:54.892Z,96149.97
2022-09-07T09:09:30.855Z,96155.25
2022-09-07T09:12:12.654Z,96157.13
2022-09-07T09:14:48.034Z,96152.38
2022-09-07T09:17:24.569Z,96150.53
2022-09-07T09:20:01.611Z,96146.78
2022-09-07T09:22:29.720Z,96144.34
2022-09-07T09:25:05.762Z,96148.97
2022-09-07T09:27:33.238Z,96148.72
2022-09-07T09:30:00.673Z,96150.78
2022-09-07T09:32:33.733Z,96143.28
2022-09-07T09:35:06.259Z,96147.16
2022-09-07T09:37:38.945Z,96152.69
2022-09-07T09:40:09.255Z,96153.13
2022-09-07T09:42:38.781Z,96151.13
2022-09-07T09:45:16.256Z,96141.53
2022-09-07T09:47:50.572Z,96147.22
2022-09-07T09:53:26.078Z,96141.75
2022-09-07T09:55:54.816Z,96137.19
2022-09-07T10:01:26.924Z,96134.72
2022-09-07T10:06:29.031Z,96128.91
2022-09-07T10:08:58.665Z,96123.13
2022-09-07T10:14:36.923Z,96099.09
2022-09-07T10:17:13.942Z,96097.94
2022-09-07T10:19:43.350Z,96097.22
2022-09-07T10:22:25.991Z,96101.56
2022-09-07T10:24:53.471Z,96112.69
2022-09-07T10:27:29.168Z,96109.63
2022-09-07T10:29:56.992Z,96106.38
2022-09-07T10:32:44.283Z,96106.28
2022-09-07T10:35:18.804Z,96109.41
2022-09-07T10:37:58.006Z,96102.06
2022-09-07T10:40:32.671Z,96104.34
2022-09-07T10:43:21.414Z,96104.34
2022-09-07T10:46:56.199Z,96111.28
2022-09-07T10:49:17.289Z,96103.03
2022-09-07T10:51:57.335Z,96101.28
2022-09-07T10:54:34.656Z,96103.81
2022-09-07T10:57:16.195Z,96105.31
2022-09-07T11:03:26.440Z,96098.72
2022-09-07T11:06:06.333Z,96086.16
2022-09-07T11:14:28.825Z,96089.88
2022-09-07T11:17:01.024Z,96073.97
2022-09-07T11:19:35.600Z,96076.47
2022-09-07T11:22:15.978Z,96069.34
2022-09-07T11:25:29.025Z,96070.94
2022-09-07T11:27:41.624Z,96064.66
2022-09-07T11:30:20.525Z,96060.56
2022-09-07T11:32:54.413Z,96056.69
2022-09-07T11:35:32.139Z,96053.81
2022-09-07T11:38:06.304Z,96039.53
2022-09-07T11:40:36.975Z,96052.72
2022-09-07T11:43:18.243Z,96050.66
2022-09-07T11:45:50.423Z,96039.75
2022-09-07T11:48:22.306Z,96049.88
2022-09-07T11:50:53.102Z,96036.88
2022-09-07T11:53:24.365Z,96040.00
2022-09-07T11:55:58.188Z,96033.97
2022-09-07T11:58:53.628Z,96030.28
2022-09-07T12:01:33.141Z,96036.22
2022-09-07T12:04:34.432Z,96026.34
2022-09-07T12:07:17.452Z,96025.75
2022-09-07T12:10:03.327Z,96019.34
2022-09-07T12:12:57.541Z,96011.47
2022-09-07T12:15:33.734Z,96004.84
2022-09-07T12:18:22.327Z,96005.75
2022-09-07T12:20:50.498Z,96014.47
2022-09-07T12:23:30.422Z,96005.59
2022-09-07T12:26:35.453Z,96003.69
2022-09-07T12:29:23.057Z,96004.50
2022-09-07T12:31:58.713Z,96003.81
2022-09-07T12:34:50.330Z,96001.88
2022-09-07T12:37:47.789Z,95996.84
2022-09-07T12:40:47.004Z,96005.41
2022-09-07T12:43:33.399Z,95982.84
2022-09-07T12:46:01.712Z,95992.06
2022-09-07T12:48:46.537Z,95998.69
2022-09-07T12:54:23.108Z,95985.91
2022-09-07T13:00:01.183Z,95986.16
2022-09-07T13:02:53.739Z,95985.66
2022-09-07T13:05:38.992Z,95994.47
2022-09-07T13:08:38.822Z,95985.91
2022-09-07T13:11:17.826Z,95975.47
2022-09-07T13:14:05.334Z,95976.84
2022-09-07T13:19:57.261Z,95964.59
2022-09-07T13:22:57.638Z,95970.06
2022-09-07T13:25:47.383Z,95957.59
2022-09-07T13:28:23.564Z,95954.75
2022-09-07T13:31:02.949Z,95965.66
2022-09-07T13:33:45.955Z,95959.09
2022-09-07T13:36:46.214Z,95958.09
2022-09-07T13:39:17.939Z,95956.19
2022-09-07T13:41:52.126Z,95959.97
2022-09-07T13:44:26.565Z,95958.25
2022-09-07T13:47:29.561Z,95947.59
2022-09-07T13:50:05.784Z,95952.63
2022-09-07T13:52:44.667Z,95941.91
2022-09-07T13:55:26.447Z,95940.91
2022-09-07T13:58:07.177Z,95933.97
2022-09-07T14:00:35.357Z,95944.31
2022-09-07T14:03:06.655Z,95947.88
2022-09-07T14:05:34.152Z,95944.56
2022-09-07T14:08:01.626Z,95938.72
2022-09-07T14:10:30.450Z,95932.78
2022-09-07T14:13:07.853Z,95925.19
2022-09-07T14:15:39.199Z,95931.13
2022-09-07T14:18:13.305Z,95925.69
2022-09-07T14:20:44.739Z,95913.59
2022-09-07T14:23:14.033Z,95920.16
2022-09-07T14:28:32.191Z,95918.72
2022-09-07T14:31:00.966Z,95910.28
2022-09-07T14:33:29.575Z,95906.19
2022-09-07T14:35:57.942Z,95912.47
2022-09-07T14:41:19.440Z,95905.91
2022-09-07T14:43:55.387Z,95905.94
2022-09-07T14:46:25.539Z,95903.84
2022-09-07T14:48:55.556Z,95902.53
2022-09-07T14:51:35.089Z,95912.16
2022-09-07T14:54:05.796Z,95910.03
2022-09-07T14:56:36.540Z,95904.00
2022-09-07T14:59:27.265Z,95911.88
2022-09-07T15:02:23.949Z,95897.69
2022-09-07T15:05:23.068Z,95902.41
2022-09-07T15:07:53.009Z,95898.72
2022-09-07T15:10:32.105Z,95902.94
2022-09-07T15:13:01.951Z,95891.09
2022-09-07T15:15:32.233Z,95888.03
2022-09-07T15:18:07.446Z,95882.88
2022-09-07T15:20:38.508Z,95882.44
2022-09-07T15:23:09.507Z,95877.69
2022-09-07T15:25:37.656Z,95873.69
2022-09-07T15:28:07.326Z,95877.94
2022-09-07T15:30:34.953Z,95873.56
2022-09-07T15:33:02.569Z,95864.69
2022-09-07T15:35:29.999Z,95863.25
2022-09-07T15:38:01.787Z,95863.75
2022-09-07T15:40:33.290Z,95859.81
2022-09-07T15:43:02.044Z,95848.66
2022-09-07T15:45:34.028Z,95862.47
2022-09-07T15:48:01.540Z,95842.09
2022-09-07T15:50:28.978Z,95851.66
2022-09-07T15:52:56.431Z,95841.25
2022-09-07T15:55:24.324Z,95832.31
2022-09-07T15:58:05.118Z,95827.72
2022-09-07T16:00:40.165Z,95825.63
2022-09-07T16:03:08.705Z,95840.22
2022-09-07T16:05:36.771Z,95842.91
2022-09-07T16:10:54.458Z,95841.19
2022-09-07T16:13:23.971Z,95833.81
2022-09-07T16:15:53.018Z,95838.63
2022-09-07T16:18:20.568Z,95840.47
2022-09-07T16:20:52.755Z,95835.75
2022-09-07T16:23:20.624Z,95840.50
2022-09-07T16:25:58.289Z,95844.78
2022-09-07T16:28:26.688Z,95846.63
2022-09-07T16:30:56.282Z,95851.88
2022-09-07T16:33:32.815Z,95846.28
2022-09-07T16:36:07.162Z,95844.47
2022-09-07T16:38:50.633Z,95838.41
2022-09-07T16:41:20.304Z,95829.00
2022-09-07T16:43:48.180Z,95832.00
2022-09-07T16:46:18.424Z,95830.91
2022-09-07T16:48:46.102Z,95837.16
2022-09-07T16:51:15.353Z,95825.41
2022-09-07T16:53:43.633Z,95827.25
2022-09-07T16:56:12.782Z,95817.75
2022-09-07T16:58:41.935Z,95826.38
2022-09-07T17:01:11.694Z,95824.59
2022-09-07T17:03:40.673Z,95825.00
2022-09-07T17:06:10.221Z,95824.69
2022-09-07T17:08:38.956Z,95820.13
2022-09-07T17:11:08.460Z,95822.63
2022-09-07T17:13:37.461Z,95821.06
2022-09-07T17:16:06.254Z,95819.94
2022-09-07T17:21:22.656Z,95812.94
2022-09-07T17:23:55.136Z,95806.44
2022-09-07T17:26:26.651Z,95811.19
2022-09-07T17:28:59.757Z,95810.09
2022-09-07T17:34:17.887Z,95814.63
2022-09-07T17:36:46.708Z,95818.72
2022-09-07T17:39:16.205Z,95814.41
2022-09-07T17:41:45.894Z,95824.81
2022-09-07T17:44:13.362Z,95818.25
2022-09-07T17:46:40.818Z,95820.66
2022-09-07T17:49:12.240Z,95822.88
2022-09-07T17:51:40.204Z,95826.16
2022-09-07T17:54:13.227Z,95830.25
2022-09-07T17:56:41.825Z,95820.16
2022-09-07T18:01:56.804Z,95832.09
2022-09-07T18:04:24.666Z,95834.28
2022-09-07T18:06:52.427Z,95847.59
2022-09-07T18:09:21.687Z,95842.94
2022-09-07T18:11:50.069Z,95841.03
2022-09-07T18:14:18.961Z,95840.94
2022-09-07T18:16:49.213Z,95830.84
2022-09-07T18:19:18.403Z,95831.63
2022-09-07T18:21:47.727Z,95832.69
2022-09-07T18:24:17.927Z,95833.34
2022-09-07T18:26:52.232Z,95837.72
2022-09-07T18:29:37.432Z,95844.72
2022-09-07T18:32:09.477Z,95831.63
2022-09-07T18:34:38.291Z,95831.09
2022-09-07T18:37:06.776Z,95837.75
2022-09-07T18:39:35.462Z,95841.00
2022-09-07T18:42:05.037Z,95845.34
2022-09-07T18:47:27.631Z,95848.56
2022-09-07T18:49:55.884Z,95849.69
2022-09-07T18:55:11.326Z,95844.22
2022-09-07T18:57:40.165Z,95844.47
2022-09-07T19:00:10.265Z,95852.31
2022-09-07T19:02:38.073Z,95849.81
2022-09-07T19:07:54.039Z,95833.34
2022-09-07T19:10:21.550Z,95834.09
2022-09-07T19:12:50.353Z,95835.53
2022-09-07T19:15:18.114Z,95835.03
2022-09-07T19:17:45.583Z,95833.91
2022-09-07T19:20:13.168Z,95832.25
2022-09-07T19:22:42.707Z,95839.22
2022-09-07T19:25:11.222Z,95838.59
2022-09-07T19:27:38.698Z,95843.94
2022-09-07T19:30:08.770Z,95840.81
2022-09-07T19:32:36.257Z,95844.94
2022-09-07T19:35:03.977Z,95839.53
2022-09-07T19:37:32.676Z,95845.97
2022-09-07T19:40:01.277Z,95838.06
2022-09-07T19:42:28.807Z,95840.69
2022-09-07T19:44:56.295Z,95835.56
2022-09-07T19:47:25.251Z,95836.72
2022-09-07T19:49:52.733Z,95830.63
2022-09-07T19:52:20.251Z,95828.00
2022-09-07T19:54:47.731Z,95835.56
2022-09-07T19:57:15.206Z,95842.09
2022-09-07T19:59:42.676Z,95836.56
2022-09-07T20:02:10.910Z,95835.31
2022-09-07T20:04:39.718Z,95835.06
2022-09-07T20:07:07.264Z,95827.84
2022-09-07T20:09:34.719Z,95828.81
2022-09-07T20:12:03.735Z,95825.38
2022-09-07T20:14:31.222Z,95825.47
2022-09-07T20:16:58.707Z,95827.91
2022-09-07T20:19:26.379Z,95831.97
2022-09-07T20:21:56.029Z,95825.94
2022-09-07T20:24:23.872Z,95819.53
2022-09-07T20:26:51.311Z,95822.84
2022-09-07T20:29:28.176Z,95820.94
2022-09-07T20:31:56.696Z,95820.38
2022-09-07T20:34:24.390Z,95809.25
2022-09-07T20:36:52.626Z,95810.25
2022-09-07T20:39:22.023Z,95809.59
2022-09-07T20:41:49.548Z,95824.06
2022-09-07T20:44:17.535Z,95817.94
2022-09-07T20:46:45.058Z,95817.63
2022-09-07T20:49:12.547Z,95818.59
2022-09-07T20:51:40.175Z,95806.00
2022-09-07T20:54:08.000Z,95798.28
2022-09-07T20:56:36.841Z,95794.44
2022-09-07T20:59:04.834Z,95793.19
2022-09-07T21:01:33.269Z,95785.59
2022-09-07T21:04:02.028Z,95776.81
2022-09-07T21:06:30.573Z,95766.16
2022-09-07T21:08:58.417Z,95772.41
2022-09-07T21:11:28.296Z,95779.22
2022-09-07T21:13:58.854Z,95781.56
2022-09-07T21:16:26.797Z,95778.66
2022-09-07T21:18:56.495Z,95776.28
2022-09-07T21:21:26.521Z,95773.28
2022-09-07T21:23:59.025Z,95767.06
2022-09-07T21:26:27.431Z,95765.56
2022-09-07T21:28:57.403Z,95763.47
2022-09-07T21:31:25.525Z,95754.88
2022-09-07T21:33:55.567Z,95763.47
2022-09-07T21:36:23.308Z,95756.59
2022-09-07T21:38:51.284Z,95758.91
2022-09-07T21:41:20.761Z,95762.00
2022-09-07T21:43:48.518Z,95764.50
2022-09-07T21:46:18.962Z,95762.31
2022-09-07T21:48:47.290Z,95762.97
2022-09-07T21:51:15.465Z,95759.34
2022-09-07T21:53:43.668Z,95753.81
2022-09-07T21:56:13.239Z,95759.78
2022-09-07T21:58:41.291Z,95760.28
2022-09-07T22:01:14.316Z,95758.78
2022-09-07T22:03:45.402Z,95754.72
2022-09-07T22:06:13.105Z,95756.03
2022-09-07T22:08:42.007Z,95752.03
2022-09-07T22:11:12.339Z,95761.84
2022-09-07T22:13:40.321Z,95756.34
2022-09-07T22:16:09.101Z,95762.41
2022-09-07T22:18:37.902Z,95753.97
2022-09-07T22:21:09.440Z,95759.31
2022-09-07T22:23:39.187Z,95760.09
2022-09-07T22:26:07.172Z,95757.78
2022-09-07T22:28:35.619Z,95759.94
2022-09-07T22:31:10.972Z,95755.81
2022-09-07T22:33:38.773Z,95764.81
2022-09-07T22:36:13.809Z,95763.50
2022-09-07T22:38:42.204Z,95757.34
2022-09-07T22:41:10.589Z,95755.13
2022-09-07T22:43:38.656Z,95761.97
2022-09-07T22:46:06.574Z,95747.84
2022-09-07T22:48:34.051Z,95745.66
2022-09-07T22:51:03.405Z,95740.94
2022-09-07T22:53:34.051Z,95738.34
2022-09-07T22:56:05.779Z,95741.03
2022-09-07T22:58:33.235Z,95732.16
2022-09-07T23:01:01.983Z,95725.19
2022-09-07T23:03:30.433Z,95730.78
2022-09-07T23:05:58.176Z,95726.44
2022-09-07T23:08:26.232Z,95713.84
2022-09-07T23:10:55.059Z,95721.22
2022-09-07T23:13:23.340Z,95723.84
2022-09-07T23:15:50.841Z,95720.72
2022-09-07T23:18:20.608Z,95713.63
2022-09-07T23:20:48.048Z,95701.97
2022-09-07T23:23:15.990Z,95696.97
2022-09-07T23:25:43.893Z,95695.69
2022-09-07T23:28:13.167Z,95688.34
2022-09-07T23:30:41.044Z,95687.50
2022-09-07T23:33:08.497Z,95679.00
2022-09-07T23:35:35.986Z,95687.66
2022-09-07T23:38:03.527Z,95686.56
2022-09-07T23:40:32.566Z,95682.31
2022-09-07T23:43:00.056Z,95679.31
2022-09-07T23:45:29.105Z,95674.38
2022-09-07T23:47:56.553Z,95675.03
2022-09-07T23:50:24.061Z,95672.34
2022-09-07T23:52:51.824Z,95680.56
2022-09-07T23:55:19.550Z,95677.16
2022-09-07T23:57:47.055Z,95681.31
